UCFM Airport Information

Runway Information
Airport Frequencies
Airport Navaids
Airport Weather Information & NOTAM
ADDS - METARS form results

(1049 UTC 24 September 2020)
Data provider http://aviationweather.gov/metar/data/
 
METAR text: UCFM 241030Z 23005MPS 200V260 CAVOK 22/M02 Q1018 R26/0///95 NOSIG
Conditions at: UCFM (MANAS , KG) observed 1030 UTC 24 September 2020
Temperature: 22.0°C (72°F)
Dewpoint: -2.0°C (28°F) [RH = 20%]
Pressure (altimeter): 30.06 inches Hg (1018.0 mb)
Winds: from the SW (230 degrees) at 12 MPH (10 knots; 5.1 m/s)
Visibility: 6 or more miles (10+ km)
Ceiling: ceiling and visibility are OK
Clouds: unknown
Weather: no significant weather observed at this time

METAR text: UCFM 241000Z 24006MPS CAVOK 22/M02 Q1018 R26/0///95 NOSIG
Conditions at: UCFM (MANAS , KG) observed 1000 UTC 24 September 2020
Temperature: 22.0°C (72°F)
Dewpoint: -2.0°C (28°F) [RH = 20%]
Pressure (altimeter): 30.06 inches Hg (1018.0 mb)
Winds: from the WSW (240 degrees) at 14 MPH (12 knots; 6.2 m/s)
Visibility: 6 or more miles (10+ km)
Ceiling: ceiling and visibility are OK
Clouds: unknown
Weather: no significant weather observed at this time

Forecast for: UCFM (MANAS , KG)
Text: TAF UCFM 240445Z 2406/2506 26003G08MPS 9999 NSC
Forecast period: 0600 UTC 24 September 2020 to 0600 UTC 25 September 2020
Forecast type: FROM: standard forecast or significant change
Winds: from the W (260 degrees) at 7 MPH (6 knots; 3.1 m/s)
gusting to 18 MPH (16 knots; 8.2 m/s)
Visibility: 6 or more miles (10+ km)
Ceiling: unknown
Clouds: missing
Weather: no significant weather forecast for this period
Text: TEMPO 2406/2412 30003G08MPS SCT050CB
Forecast period: 0600 to 1200 UTC 24 September 2020
Forecast type: TEMPORARY: The following changes expected for less than half the time period
Winds: from the WNW (300 degrees) at 7 MPH (6 knots; 3.1 m/s)
gusting to 18 MPH (16 knots; 8.2 m/s)
Visibility: missing
Ceiling: at least 12,000 feet AGL
Clouds: scattered clouds at 5000 feet AGL
Weather: no significant weather forecast for this period
Text: TEMPO 2418/2503 2000 BR FU FEW003
Forecast period: 1800 UTC 24 September 2020 to 0300 UTC 25 September 2020
Forecast type: TEMPORARY: The following changes expected for less than half the time period
Visibility: 1.24 miles (2.00 km)
Ceiling: at least 12,000 feet AGL
Clouds: few clouds at 300 feet AGL
Weather: BR FU  (mist, smoke)